Terminal Aerodrome Forecast
Issued by NWS

Home | Current Version | Previous Version | Graphics & Text | Print | Product List | Glossary On
Versions: 1 2 3 4 5 6 7 8 9 10 11 12
000
FTUS43 KBIS 201700
TAFJMS
TAF
KJMS 201730Z 2018/2118 16005KT P6SM SKC
     FM210700 14009KT P6SM FEW250
     FM211500 15013G23KT P6SM FEW250=

USA.gov is the U.S. government's official web portal to all federal, state and local government web resources and services.